Fairchild Air Force Base
KSKA : now visible

Airfield :











YOU CAN JOIN US ON...

 
LOGIN :

Register | Disclaimer

   EN    FR    IT 

 









Legend :    VFR   Marginal VFR   IFR   Intensive IFR   Very Intensive IFR
Visi :
Ceiling :
>= 8 km
>= 3000ft
5 to 8 km
1000 to 3000 ft
1500m to 5 km
500 to 1000 ft
800 to 1500m
200 to 500 ft
< 800m
< 200 ft
Symbols :   Thunderstorms  Fog  Heavy snow  Heavy precipitations  Wind > 20 kt






- Airport Elevation : 2461 ft


KSKA - Fairchild Air Force Base

CURRENT METAR :
  • 080258Z 06003KT 1/2SM R05/3000V3500FT FZFG VV003 M00/M01 A2989 RMK AO2A CIG 002 RWY23 SLP150 T10051006 57018 $

EXPIRED METARs :
  • 080215Z 00000KT 1/2SM R05/4000V5000FT FZFG VV003 M00/M00 A2992 RMK AO2A CIG 002 RWY23 SLP160 57017 $
  • 080158Z 00000KT 3/4SM R05/4000V4500FT BR VV003 M00/M00 A2992 RMK AO2A CIG 002 RWY23 SLP160 T10031004 $
  • 080111Z 00000KT 1/2SM R05/3500V4000FT FZFG VV003 M00/M00 A2993 RMK AO2A CIG 002 RWY23 SLP163 $
  • 080059Z 13003KT 5/8SM R05/3500V4500FT BR VV003 M01/M01 A2994 RMK AO2A CIG 002 RWY23 SLP167 T10051006 $

TAF TAF KSKA
Valid from the 08 at 03:00 until the 09 at 09:00 UTC


080300Z 0803/0909 VRB06KT 0800 FZFG OVC002 620023 QNH2964INS
BECMG 0810/0812 20012KT 3200 -RA BR OVC003 620309 QNH2959INS
BECMG 0815/0816 21012G20KT 9999 VCSH FEW005 BKN040 BKN150 620407 QNH2959INS
BECMG 0820/0821 21020G30KT 9999 NSW BKN050 BKN150 620505 QNH2963INS
TEMPO 0822/0902 22025G35KT 510003
BECMG 0902/0903 23010G15KT 9999 SCT100 QNH2975INS TX04/0818Z TN00/0803Z
KZSE FIR / North America



MET'MAP, your aeronautical weather chart ! - Copyright ORBIFLY December 2007 - Disclaimer

ORBIFLY MET'MAP TEAM :

Programming & Development : Alexandra Zaïnal
Concept & original design : Baudouin d'Aumeries
Assistance for programming : Marc-Olivier Méhu
Technical & hardware support : Manuel Goepfert

Contact : metmap@orbifly.com




SOURCES & CREDITS :

   NOAA       Earth
Advisory